This is the latest recevied weather packets stored in our database for station/object N3MFL. If no packets are shown the sender has not sent any weather packets the latest 10 day(s).
| Time | Temp. | Humidity | Pressure | Rain* | Wind** | Luminosity | Snow |
|---|---|---|---|---|---|---|---|
| 1777714379 | 7.78° C | 82% | 1012.7 hPa | 0 mm | - | 1 W/m² | - |
| 1777714077 | 7.78° C | 83% | 1012.6 hPa | 0 mm | - | 0 W/m² | - |
| 1777713774 | 7.22° C | 84% | 1012.7 hPa | 0 mm | - | 0 W/m² | - |
| 1777713471 | 7.22° C | 85% | 1012.9 hPa | 0 mm | - | 0 W/m² | - |
| 1777713167 | 6.67° C | 86% | 1012.7 hPa | 0 mm | - | 0 W/m² | - |
| 1777712865 | 6.67° C | 86% | 1012.8 hPa | 0 mm | - | 0 W/m² | - |
| 1777712561 | 6.67° C | 85% | 1012.5 hPa | 0 mm | - | 0 W/m² | - |
| 1777712258 | 6.67° C | 85% | 1012.5 hPa | 0 mm | - | 0 W/m² | - |
| 1777711955 | 6.67° C | 85% | 1012.4 hPa | 0 mm | - | 0 W/m² | - |
| 1777711653 | 6.67° C | 84% | 1012.5 hPa | 0 mm | - | 0 W/m² | - |
| 1777711352 | 6.67° C | 84% | 1012.4 hPa | 0 mm | - | 0 W/m² | - |
| 1777711049 | 6.67° C | 82% | 1012.4 hPa | 0 mm | - | 0 W/m² | - |
| 1777710746 | 7.22° C | 81% | 1012.4 hPa | 0 mm | - | 0 W/m² | - |
| 1777710443 | 6.67° C | 84% | 1012.5 hPa | 0 mm | - | 0 W/m² | - |
| 1777710140 | 6.11° C | 87% | 1012.5 hPa | 0 mm | - | 0 W/m² | - |
| 1777709837 | 5.56° C | 89% | 1012.5 hPa | 0 mm | - | 0 W/m² | - |
| 1777709535 | 5° C | 90% | 1012.5 hPa | 0 mm | - | 0 W/m² | - |
| 1777709232 | 5° C | 90% | 1012.5 hPa | 0 mm | - | 0 W/m² | - |
| 1777708929 | 5° C | 90% | 1012.5 hPa | 0 mm | - | 0 W/m² | - |
| 1777708627 | 5° C | 90% | 1012.4 hPa | 0 mm | - | 0 W/m² | - |
| 1777708324 | 5° C | 90% | 1012.5 hPa | 0 mm | - | 0 W/m² | - |
| 1777708021 | 5° C | 90% | 1012.7 hPa | 0 mm | - | 0 W/m² | - |
| 1777707719 | 5° C | 90% | 1012.6 hPa | 0 mm | - | 0 W/m² | - |
| 1777707415 | 5° C | 90% | 1012.5 hPa | 0 mm | - | 0 W/m² | - |
| 1777707111 | 5° C | 90% | 1012.5 hPa | 0 mm | - | 0 W/m² | - |
* Rain latest hour (hover to see other rain measurements)
** Current wind speed in m/s (hover to see current wind gust speed)